CST,Max TemperatureF,Mean TemperatureF,Min TemperatureF,Max Dew PointF,MeanDew PointF,Min DewpointF,Max Humidity, Mean Humidity, Min Humidity, Max Sea Level PressureIn, Mean Sea Level PressureIn, Min Sea Level PressureIn, Max VisibilityMiles, Mean VisibilityMiles, Min VisibilityMiles, Max Wind SpeedMPH, Mean Wind SpeedMPH, Max Gust SpeedMPH,PrecipitationIn, CloudCover, Events, WindDirDegrees
2013-1-1,12,7,1,3,-1,-4,87,74,61,30.31,30.26,30.15,10,10,10,12,7,14,0.00,2,,299
2013-1-2,23,13,3,20,8,-2,86,80,73,30.20,30.12,30.04,10,9,3,16,9,18,0.01,5,Snow,202
2013-1-3,26,17,7,23,13,3,96,84,71,30.35,30.21,30.06,10,8,4,21,12,24,T,6,,267
2013-1-4,28,19,10,20,12,2,88,81,61,30.28,30.22,30.15,10,9,6,21,11,25,0.00,0,,230
2013-1-5,34,23,11,31,23,12,96,86,75,30.22,30.03,29.91,10,7,3,23,11,28,0.00,5,,218
2013-1-6,22,15,8,16,11,6,88,78,67,30.33,30.21,29.99,10,8,6,16,9,22,0.00,3,,264
2013-1-7,35,22,9,25,18,7,92,76,59,30.30,30.14,30.02,10,10,8,32,13,40,0.00,0,,196
2013-1-8,38,29,19,30,25,18,92,81,70,30.10,30.03,29.93,10,9,6,26,12,31,0.00,1,,190
2013-1-9,37,28,19,28,25,18,92,81,70,30.49,30.31,30.02,10,10,6,26,12,32,0.00,0,,257
2013-1-10,39,30,20,36,28,18,100,75,50,30.48,30.11,29.75,10,7,0,24,12,26,0.24,5,Fog-Rain,132
2013-1-11,44,39,34,43,38,34,100,96,92,29.80,29.65,29.56,10,2,0,20,11,24,0.02,1,Fog,181
2013-1-12,47,33,19,41,21,11,89,79,68,30.05,29.91,29.60,10,10,9,32,16,38,T,5,,271
2013-1-13,19,14,8,10,5,3,80,74,67,30.31,30.11,29.95,10,10,10,22,12,28,0.00,4,,303
2013-1-14,25,15,4,11,6,1,87,71,55,30.49,30.43,30.32,10,10,10,13,5,16,0.00,0,,261
2013-1-15,29,20,11,14,10,7,84,65,46,30.44,30.31,30.11,10,10,10,16,8,18,0.00,1,,201
2013-1-16,36,25,14,34,23,8,100,82,63,30.12,29.94,29.80,10,8,2,23,14,29,T,6,Snow,255
2013-1-17,30,22,14,21,13,6,81,64,46,30.43,30.36,30.11,10,10,10,21,9,39,0.00,1,,303
2013-1-18,47,34,20,30,25,16,84,69,53,30.41,30.06,29.88,10,10,10,35,16,43,0.00,2,,200
2013-1-19,47,30,13,33,25,3,89,74,58,30.12,29.87,29.74,10,10,10,39,18,52,0.00,2,,257
2013-1-20,15,10,5,3,0,-2,80,66,51,30.39,30.31,30.15,10,10,8,31,13,40,0.00,4,,299
2013-1-21,10,4,-3,3,-7,-12,80,65,49,30.36,30.28,30.17,10,9,2,24,16,31,T,2,Snow,300
2013-1-22,9,1,-7,-2,-7,-12,82,69,55,30.44,30.39,30.34,10,10,9,18,10,23,0.00,3,,290
2013-1-23,23,14,4,13,5,-6,83,70,57,30.48,30.23,30.08,10,8,1,28,13,33,0.01,7,Snow,251
2013-1-24,18,9,0,7,-3,-9,72,60,48,30.69,30.54,30.31,10,10,10,23,9,32,0.00,1,,79
2013-1-25,29,20,11,16,9,3,74,61,47,30.28,30.12,29.97,10,9,2,28,15,36,T,5,Snow,251
2013-1-26,26,16,5,13,6,0,80,63,46,30.42,30.35,30.27,10,10,10,17,8,29,0.00,3,,130
2013-1-27,34,29,24,34,26,13,100,80,60,30.29,29.99,29.78,10,4,0,24,15,30,0.10,7,Fog-Rain-Snow,155
2013-1-28,43,39,34,43,37,34,100,91,82,29.95,29.81,29.67,10,4,0,31,7,32,0.43,7,Fog-Rain-Thunderstorm,135
2013-1-29,55,44,32,54,43,31,100,95,89,29.70,29.57,29.49,10,3,0,28,12,39,0.51,8,Fog-Rain-Thunderstorm,294
2013-1-30,33,23,13,31,21,6,100,87,73,29.75,29.47,29.31,10,3,0,29,19,36,0.43,8,Fog-Rain-Snow,340
2013-1-31,13,4,-5,7,-2,-11,86,76,65,30.30,29.93,29.70,10,8,2,25,18,31,T,7,Rain-Snow,293